createdAt,value
2018-10-19T00:02:11.806Z,12.40
2018-10-19T00:04:40.138Z,12.40
2018-10-19T00:07:08.496Z,12.40
2018-10-19T00:09:36.828Z,12.40
2018-10-19T00:12:05.252Z,12.40
2018-10-19T00:14:33.612Z,12.30
2018-10-19T00:17:01.995Z,12.30
2018-10-19T00:19:30.323Z,12.30
2018-10-19T00:21:58.687Z,12.30
2018-10-19T00:24:27.068Z,12.30
2018-10-19T00:26:55.442Z,12.30
2018-10-19T00:29:23.772Z,12.30
2018-10-19T00:31:52.300Z,12.20
2018-10-19T00:34:20.689Z,12.20
2018-10-19T00:36:49.164Z,12.20
2018-10-19T00:39:17.474Z,12.20
2018-10-19T00:41:45.719Z,12.10
2018-10-19T00:44:14.130Z,12.00
2018-10-19T00:46:42.481Z,11.90
2018-10-19T00:49:11.013Z,11.80
2018-10-19T00:51:39.497Z,11.80
2018-10-19T00:54:08.043Z,11.70
2018-10-19T00:56:36.484Z,11.70
2018-10-19T00:59:04.933Z,11.60
2018-10-19T01:01:33.278Z,11.50
2018-10-19T01:04:01.637Z,11.40
2018-10-19T01:06:29.991Z,11.40
2018-10-19T01:08:58.372Z,11.30
2018-10-19T01:11:26.722Z,11.30
2018-10-19T01:13:55.102Z,11.20
2018-10-19T01:16:23.445Z,11.10
2018-10-19T01:18:51.886Z,11.00
2018-10-19T01:21:20.231Z,11.00
2018-10-19T01:23:48.631Z,11.00
2018-10-19T01:26:16.992Z,10.90
2018-10-19T01:28:45.316Z,10.90
2018-10-19T01:31:13.677Z,10.90
2018-10-19T01:33:42.049Z,10.80
2018-10-19T01:36:10.462Z,10.80
2018-10-19T01:38:38.792Z,10.80
2018-10-19T01:41:07.275Z,10.70
2018-10-19T01:43:35.528Z,10.70
2018-10-19T01:46:03.911Z,10.70
2018-10-19T01:48:32.286Z,10.60
2018-10-19T01:51:00.658Z,10.60
2018-10-19T01:53:29.019Z,10.60
2018-10-19T01:55:57.366Z,10.60
2018-10-19T01:58:25.690Z,10.60
2018-10-19T02:00:54.016Z,10.50
2018-10-19T02:03:22.356Z,10.50
2018-10-19T02:05:50.669Z,10.50
2018-10-19T02:08:18.998Z,10.50
2018-10-19T02:10:47.392Z,10.40
2018-10-19T02:13:15.770Z,10.40
2018-10-19T02:15:44.150Z,10.30
2018-10-19T02:18:12.503Z,10.30
2018-10-19T02:20:40.848Z,10.30
2018-10-19T02:23:09.198Z,10.30
2018-10-19T02:25:37.520Z,10.30
2018-10-19T02:28:05.858Z,10.30
2018-10-19T02:30:34.210Z,10.30
2018-10-19T02:33:02.639Z,10.30
2018-10-19T02:35:30.910Z,10.30
2018-10-19T02:37:59.244Z,10.30
2018-10-19T02:40:27.596Z,10.20
2018-10-19T02:42:55.950Z,10.20
2018-10-19T02:45:24.330Z,10.20
2018-10-19T02:47:52.674Z,10.10
2018-10-19T02:50:21.032Z,10.10
2018-10-19T02:52:49.359Z,10.10
2018-10-19T02:55:17.678Z,10.00
2018-10-19T02:57:46.037Z,10.00
2018-10-19T03:00:14.367Z,10.00
2018-10-19T03:02:43.587Z,9.90
2018-10-19T03:05:11.922Z,9.90
2018-10-19T03:07:40.351Z,9.90
2018-10-19T03:10:09.303Z,9.90
2018-10-19T03:12:37.640Z,9.90
2018-10-19T03:15:07.144Z,9.90
2018-10-19T03:17:35.421Z,9.80
2018-10-19T03:20:03.984Z,9.80
2018-10-19T03:22:32.543Z,9.80
2018-10-19T03:25:00.879Z,9.80
2018-10-19T03:27:30.976Z,9.80
2018-10-19T03:29:59.315Z,9.80
2018-10-19T03:32:27.680Z,9.70
2018-10-19T03:34:56.185Z,9.70
2018-10-19T03:37:24.546Z,9.70
2018-10-19T03:39:52.920Z,9.70
2018-10-19T03:42:21.298Z,9.70
2018-10-19T03:44:49.616Z,9.60
2018-10-19T03:47:18.045Z,9.60
2018-10-19T03:49:46.293Z,9.60
2018-10-19T03:52:14.623Z,9.50
2018-10-19T03:54:42.952Z,9.50
2018-10-19T03:57:11.372Z,9.40
2018-10-19T03:59:39.640Z,9.40
2018-10-19T04:02:07.988Z,9.40
2018-10-19T04:04:36.368Z,9.30
2018-10-19T04:07:05.166Z,9.30
2018-10-19T04:09:34.144Z,9.30
2018-10-19T04:12:02.916Z,9.30
2018-10-19T04:14:31.289Z,9.30
2018-10-19T04:16:59.645Z,9.30
2018-10-19T04:19:27.996Z,9.20
2018-10-19T04:21:56.340Z,9.20
2018-10-19T04:24:24.689Z,9.20
2018-10-19T04:26:53.135Z,9.20
2018-10-19T04:29:21.455Z,9.20
2018-10-19T04:31:49.779Z,9.20
2018-10-19T04:34:18.115Z,9.20
2018-10-19T04:36:46.487Z,9.20
2018-10-19T04:39:14.942Z,9.20
2018-10-19T04:41:43.329Z,9.20
2018-10-19T04:44:11.594Z,9.20
2018-10-19T04:46:39.930Z,9.20
2018-10-19T04:49:08.246Z,9.10
2018-10-19T04:51:36.612Z,9.20
2018-10-19T04:54:05.002Z,9.20
2018-10-19T04:56:33.340Z,9.10
2018-10-19T04:59:01.700Z,9.20
2018-10-19T05:01:30.060Z,9.10
2018-10-19T05:03:58.412Z,9.10
2018-10-19T05:06:26.781Z,9.10
2018-10-19T05:08:55.064Z,9.10
2018-10-19T05:11:23.416Z,9.10
2018-10-19T05:13:51.785Z,9.10
2018-10-19T05:16:20.126Z,9.10
2018-10-19T05:18:48.562Z,9.10
2018-10-19T05:21:16.908Z,9.10
2018-10-19T05:23:45.220Z,9.00
2018-10-19T05:26:13.654Z,9.00
2018-10-19T05:28:41.918Z,9.00
2018-10-19T05:31:10.282Z,9.00
2018-10-19T05:33:38.609Z,8.90
2018-10-19T05:36:06.951Z,8.90
2018-10-19T05:38:35.320Z,8.90
2018-10-19T05:41:03.797Z,8.90
2018-10-19T05:43:32.142Z,8.90
2018-10-19T05:46:00.485Z,8.90
2018-10-19T05:48:28.826Z,8.90
2018-10-19T05:50:57.202Z,8.90
2018-10-19T05:53:25.559Z,8.90
2018-10-19T05:55:53.953Z,9.00
2018-10-19T05:58:22.222Z,9.00
2018-10-19T06:00:50.544Z,9.00
2018-10-19T06:03:18.902Z,9.00
2018-10-19T06:05:47.220Z,9.00
2018-10-19T06:08:15.660Z,9.00
2018-10-19T06:10:44.328Z,9.00
2018-10-19T06:13:12.661Z,9.00
2018-10-19T06:15:41.018Z,9.00
2018-10-19T06:18:09.337Z,9.00
2018-10-19T06:20:37.689Z,8.90
2018-10-19T06:23:06.067Z,8.90
2018-10-19T06:25:34.382Z,9.00
2018-10-19T06:28:02.749Z,9.00
2018-10-19T06:30:31.082Z,9.00
2018-10-19T06:32:59.431Z,9.10
2018-10-19T06:35:28.384Z,9.00
2018-10-19T06:37:56.844Z,9.00
2018-10-19T06:40:25.141Z,9.10
2018-10-19T06:42:53.505Z,9.10
2018-10-19T06:45:21.846Z,9.10
2018-10-19T06:47:50.304Z,9.20
2018-10-19T06:50:18.808Z,9.30
2018-10-19T06:52:47.126Z,9.40
2018-10-19T06:55:17.291Z,9.40
2018-10-19T06:57:45.673Z,9.40
2018-10-19T07:00:14.931Z,9.40
2018-10-19T07:02:43.371Z,9.50
2018-10-19T07:05:11.904Z,9.50
2018-10-19T07:07:40.191Z,9.60
2018-10-19T07:10:09.603Z,9.70
2018-10-19T07:12:38.066Z,9.80
2018-10-19T07:15:07.597Z,9.90
2018-10-19T07:17:36.209Z,10.00
2018-10-19T07:20:05.504Z,10.10
2018-10-19T07:22:33.817Z,10.30
2018-10-19T07:25:02.484Z,10.40
2018-10-19T07:27:30.934Z,10.50
2018-10-19T07:29:59.537Z,10.60
2018-10-19T07:32:27.873Z,10.60
2018-10-19T07:34:56.307Z,10.70
2018-10-19T07:37:24.673Z,10.70
2018-10-19T07:39:53.081Z,10.70
2018-10-19T07:42:21.573Z,10.80
2018-10-19T07:44:49.948Z,10.90
2018-10-19T07:47:18.477Z,10.90
2018-10-19T07:49:46.771Z,11.00
2018-10-19T07:52:15.137Z,11.20
2018-10-19T07:54:43.486Z,11.30
2018-10-19T07:57:11.863Z,11.40
2018-10-19T07:59:40.233Z,11.50
2018-10-19T08:02:08.596Z,11.60
2018-10-19T08:04:43.693Z,11.70
2018-10-19T08:07:12.048Z,11.80
2018-10-19T08:09:40.363Z,11.90
2018-10-19T08:12:08.737Z,12.00
2018-10-19T08:14:37.059Z,12.00
2018-10-19T08:17:05.521Z,12.10
2018-10-19T08:19:33.776Z,12.30
2018-10-19T08:22:02.194Z,12.30
2018-10-19T08:24:30.531Z,12.40
2018-10-19T08:26:58.919Z,12.50
2018-10-19T08:29:27.279Z,12.50
2018-10-19T08:31:55.617Z,12.60
2018-10-19T08:34:24.608Z,12.60
2018-10-19T08:36:53.059Z,12.70
2018-10-19T08:39:27.999Z,12.70
2018-10-19T08:41:56.325Z,12.80
2018-10-19T08:44:24.714Z,12.90
2018-10-19T08:46:53.066Z,13.00
2018-10-19T08:49:21.728Z,13.10
2018-10-19T08:51:50.169Z,13.20
2018-10-19T08:54:18.575Z,13.30
2018-10-19T08:56:46.962Z,13.30
2018-10-19T08:59:15.350Z,13.30
2018-10-19T09:01:43.722Z,13.40
2018-10-19T09:04:12.145Z,13.40
2018-10-19T09:06:40.408Z,13.50
2018-10-19T09:09:11.007Z,13.50
2018-10-19T09:11:39.905Z,13.50
2018-10-19T09:14:19.564Z,13.60
2018-10-19T09:16:48.376Z,13.60
2018-10-19T09:19:16.737Z,13.60
2018-10-19T09:21:45.108Z,13.70
2018-10-19T09:24:13.640Z,13.70
2018-10-19T09:26:43.379Z,13.80
2018-10-19T09:29:12.197Z,13.80
2018-10-19T09:31:40.508Z,13.80
2018-10-19T09:34:08.922Z,13.80
2018-10-19T09:36:37.318Z,13.90
2018-10-19T09:39:08.722Z,14.00
2018-10-19T09:41:37.004Z,14.10
2018-10-19T09:44:06.051Z,14.10
2018-10-19T09:46:35.925Z,14.20
2018-10-19T09:49:04.340Z,14.20
2018-10-19T09:51:32.644Z,14.30
2018-10-19T09:54:00.983Z,14.40
2018-10-19T09:56:30.349Z,14.40
2018-10-19T09:58:58.709Z,14.50
2018-10-19T10:01:28.692Z,14.60
2018-10-19T10:03:57.120Z,14.70
2018-10-19T10:06:25.484Z,14.80
2018-10-19T10:08:53.882Z,14.90
2018-10-19T10:11:22.232Z,15.10
2018-10-19T10:13:50.621Z,15.20
2018-10-19T10:16:19.311Z,15.30
2018-10-19T10:18:47.689Z,15.30
2018-10-19T10:21:16.033Z,15.50
2018-10-19T10:23:44.385Z,15.60
2018-10-19T10:26:13.419Z,15.80
2018-10-19T10:28:42.506Z,15.90
2018-10-19T10:31:10.923Z,16.00
2018-10-19T10:33:39.269Z,16.20
2018-10-19T10:36:07.622Z,16.30
2018-10-19T10:38:36.086Z,16.40
2018-10-19T10:41:04.738Z,16.60
2018-10-19T10:43:33.138Z,16.70
2018-10-19T10:46:01.679Z,16.80
2018-10-19T10:48:29.993Z,16.80
2018-10-19T10:50:58.452Z,16.80
2018-10-19T10:53:26.860Z,16.90
2018-10-19T10:55:55.208Z,17.00
2018-10-19T10:58:23.632Z,17.00
2018-10-19T11:00:52.946Z,17.00
2018-10-19T11:03:21.290Z,17.00
2018-10-19T11:05:49.636Z,17.10
2018-10-19T11:08:18.022Z,17.30
2018-10-19T11:10:46.360Z,17.30
2018-10-19T11:13:14.863Z,17.30
2018-10-19T11:15:43.150Z,17.40
2018-10-19T11:18:11.548Z,17.40
2018-10-19T11:20:39.929Z,17.50
2018-10-19T11:23:08.322Z,17.60
2018-10-19T11:25:36.698Z,17.70
2018-10-19T11:28:05.151Z,17.80
2018-10-19T11:30:33.516Z,17.80
2018-10-19T11:33:01.876Z,17.80
2018-10-19T11:35:30.247Z,17.90
2018-10-19T11:37:58.603Z,18.00
2018-10-19T11:40:29.806Z,18.10
2018-10-19T11:42:58.498Z,18.30
2018-10-19T11:45:28.162Z,18.40
2018-10-19T11:47:56.521Z,18.60
2018-10-19T11:50:25.736Z,18.90
2018-10-19T11:52:54.172Z,19.20
2018-10-19T11:55:22.532Z,19.40
2018-10-19T11:57:51.558Z,19.50
2018-10-19T12:00:20.050Z,19.60
2018-10-19T12:02:49.344Z,19.70
2018-10-19T12:05:17.694Z,19.80
2018-10-19T12:07:46.044Z,19.80
2018-10-19T12:10:15.044Z,19.80
2018-10-19T12:12:43.768Z,19.80
2018-10-19T12:15:13.551Z,19.80
2018-10-19T12:17:42.513Z,19.90
2018-10-19T12:20:13.539Z,20.00
2018-10-19T12:22:41.936Z,20.00
2018-10-19T12:25:11.173Z,20.20
2018-10-19T12:27:39.848Z,20.40
2018-10-19T12:30:08.884Z,20.70
2018-10-19T12:32:37.578Z,20.80
2018-10-19T12:35:08.180Z,20.90
2018-10-19T12:37:36.597Z,21.20
2018-10-19T12:40:05.124Z,21.40
2018-10-19T12:42:33.601Z,21.50
2018-10-19T12:45:02.064Z,21.60
2018-10-19T12:47:33.880Z,21.70
2018-10-19T12:50:02.380Z,21.80
2018-10-19T12:52:30.792Z,21.80
2018-10-19T12:54:59.373Z,21.80
2018-10-19T12:57:30.148Z,21.90
2018-10-19T12:59:58.577Z,22.00
2018-10-19T13:02:31.643Z,22.10
2018-10-19T13:05:00.181Z,22.10
2018-10-19T13:07:28.631Z,21.90
2018-10-19T13:09:57.118Z,21.90
2018-10-19T13:12:25.562Z,22.10
2018-10-19T13:14:54.185Z,22.30
2018-10-19T13:17:22.550Z,22.30
2018-10-19T13:19:50.987Z,22.40
2018-10-19T13:22:19.471Z,22.40
2018-10-19T13:24:47.939Z,22.40
2018-10-19T13:27:17.254Z,22.50
2018-10-19T13:29:46.305Z,22.60
2018-10-19T13:32:14.709Z,22.60
2018-10-19T13:34:44.085Z,22.60
2018-10-19T13:37:12.591Z,22.80
2018-10-19T13:39:40.996Z,22.80
2018-10-19T13:42:09.383Z,22.90
2018-10-19T13:44:37.868Z,23.00
2018-10-19T13:47:07.349Z,23.00
2018-10-19T13:49:35.755Z,23.10
2018-10-19T13:52:04.149Z,23.10
2018-10-19T13:54:32.618Z,23.10
2018-10-19T13:57:01.102Z,23.20
2018-10-19T13:59:29.900Z,23.30
2018-10-19T14:01:58.378Z,23.20
2018-10-19T14:04:26.772Z,23.30
2018-10-19T14:06:55.121Z,23.30
2018-10-19T14:09:23.488Z,23.30
2018-10-19T14:11:51.885Z,23.30
2018-10-19T14:14:20.243Z,23.30
2018-10-19T14:16:48.669Z,23.30
2018-10-19T14:19:17.621Z,23.40
2018-10-19T14:21:45.987Z,23.30
2018-10-19T14:24:15.231Z,23.20
2018-10-19T14:26:43.732Z,23.10
2018-10-19T14:29:12.148Z,23.10
2018-10-19T14:31:41.447Z,23.00
2018-10-19T14:34:09.791Z,22.90
2018-10-19T14:36:38.241Z,23.00
2018-10-19T14:39:07.061Z,23.00
2018-10-19T14:41:35.476Z,23.00
2018-10-19T14:44:04.003Z,23.10
2018-10-19T14:46:32.483Z,23.10
2018-10-19T14:49:01.063Z,23.00
2018-10-19T14:51:29.479Z,22.90
2018-10-19T14:53:57.964Z,22.70
2018-10-19T14:56:26.425Z,22.70
2018-10-19T14:58:55.506Z,22.70
2018-10-19T15:01:23.912Z,22.60
2018-10-19T15:03:52.941Z,22.50
2018-10-19T15:06:21.417Z,22.40
2018-10-19T15:08:49.896Z,22.40
2018-10-19T15:11:18.548Z,22.20
2018-10-19T15:13:48.741Z,22.00
2018-10-19T15:16:18.362Z,21.90
2018-10-19T15:18:46.882Z,21.80
2018-10-19T15:21:15.971Z,21.70
2018-10-19T15:23:44.350Z,21.60
2018-10-19T15:26:12.804Z,21.50
2018-10-19T15:28:41.249Z,21.50
2018-10-19T15:31:09.684Z,21.40
2018-10-19T15:33:39.272Z,21.40
2018-10-19T15:36:07.772Z,21.30
2018-10-19T15:38:36.276Z,21.20
2018-10-19T15:41:05.265Z,21.10
2018-10-19T15:43:34.449Z,21.00
2018-10-19T15:46:03.045Z,20.80
2018-10-19T15:48:31.497Z,20.70
2018-10-19T15:51:00.059Z,20.60
2018-10-19T15:53:28.528Z,20.40
2018-10-19T15:55:58.725Z,20.30
2018-10-19T15:58:27.205Z,20.10
2018-10-19T16:00:55.604Z,19.90
2018-10-19T16:03:24.059Z,19.80
2018-10-19T16:05:52.543Z,19.60
2018-10-19T16:08:21.066Z,19.50
2018-10-19T16:10:49.551Z,19.30
2018-10-19T16:13:18.041Z,19.10
2018-10-19T16:15:46.466Z,19.00
2018-10-19T16:18:15.034Z,18.80
2018-10-19T16:20:43.663Z,18.70
2018-10-19T16:23:12.218Z,18.50
2018-10-19T16:25:40.670Z,18.40
2018-10-19T16:28:09.139Z,18.20
2018-10-19T16:30:37.684Z,18.10
2018-10-19T16:33:06.155Z,18.00
2018-10-19T16:35:34.616Z,17.90
2018-10-19T16:38:03.073Z,17.80
2018-10-19T16:40:31.542Z,17.60
2018-10-19T16:43:07.576Z,17.50
2018-10-19T16:45:36.203Z,17.40
2018-10-19T16:48:04.903Z,17.30
2018-10-19T16:50:33.397Z,17.20
2018-10-19T16:53:01.990Z,17.10
2018-10-19T16:55:30.341Z,17.00
2018-10-19T16:57:58.768Z,16.90
2018-10-19T17:00:27.242Z,16.90
2018-10-19T17:02:55.772Z,16.80
2018-10-19T17:05:29.014Z,16.70
2018-10-19T17:07:58.218Z,16.60
2018-10-19T17:10:27.680Z,16.40
2018-10-19T17:12:56.182Z,16.30
2018-10-19T17:15:37.161Z,16.20
2018-10-19T17:18:05.696Z,16.20
2018-10-19T17:20:34.071Z,16.10
2018-10-19T17:23:02.513Z,16.10
2018-10-19T17:25:31.052Z,16.00
2018-10-19T17:27:59.747Z,16.00
2018-10-19T17:30:28.203Z,15.90
2018-10-19T17:32:56.615Z,15.80
2018-10-19T17:35:25.684Z,15.70
2018-10-19T17:37:54.181Z,15.70
2018-10-19T17:40:22.603Z,15.60
2018-10-19T17:42:51.141Z,15.50
2018-10-19T17:45:20.458Z,15.40
2018-10-19T17:47:48.987Z,15.40
2018-10-19T17:50:17.293Z,15.30
2018-10-19T17:52:45.676Z,15.30
2018-10-19T17:55:16.144Z,15.20
2018-10-19T17:57:44.668Z,15.20
2018-10-19T18:00:15.947Z,15.10
2018-10-19T18:02:44.322Z,15.00
2018-10-19T18:05:12.715Z,14.90
2018-10-19T18:07:41.099Z,14.90
2018-10-19T18:10:09.505Z,14.90
2018-10-19T18:12:37.894Z,14.80
2018-10-19T18:15:06.576Z,14.80
2018-10-19T18:17:34.948Z,14.70
2018-10-19T18:20:03.424Z,14.70
2018-10-19T18:22:31.915Z,14.60
2018-10-19T18:25:00.281Z,14.60
2018-10-19T18:27:28.704Z,14.50
2018-10-19T18:29:57.208Z,14.50
2018-10-19T18:32:25.595Z,14.50
2018-10-19T18:34:54.022Z,14.40
2018-10-19T18:37:22.371Z,14.40
2018-10-19T18:39:52.022Z,14.40
2018-10-19T18:42:20.563Z,14.30
2018-10-19T18:44:49.453Z,14.30
2018-10-19T18:47:17.985Z,14.30
2018-10-19T18:49:46.436Z,14.30
2018-10-19T18:52:14.945Z,14.30
2018-10-19T18:54:43.328Z,14.20
2018-10-19T18:57:12.126Z,14.10
2018-10-19T18:59:40.522Z,14.00
2018-10-19T19:02:08.985Z,13.90
2018-10-19T19:04:37.354Z,13.80
2018-10-19T19:07:06.419Z,13.70
2018-10-19T19:09:34.889Z,13.60
2018-10-19T19:12:03.293Z,13.50
2018-10-19T19:14:31.689Z,13.50
2018-10-19T19:17:00.023Z,13.40
2018-10-19T19:19:28.356Z,13.30
2018-10-19T19:21:56.745Z,13.30
2018-10-19T19:24:30.414Z,13.20
2018-10-19T19:26:58.802Z,13.20
2018-10-19T19:29:27.162Z,13.10
2018-10-19T19:31:55.575Z,13.00
2018-10-19T19:34:29.312Z,13.00
2018-10-19T19:36:57.726Z,12.90
2018-10-19T19:39:26.123Z,12.90
2018-10-19T19:41:59.774Z,12.80
2018-10-19T19:44:28.190Z,12.80
2018-10-19T19:46:56.618Z,12.80
2018-10-19T19:49:30.415Z,12.80
2018-10-19T19:51:58.769Z,12.70
2018-10-19T19:54:27.181Z,12.70
2018-10-19T19:56:55.644Z,12.60
2018-10-19T19:59:24.246Z,12.60
2018-10-19T20:01:52.657Z,12.60
2018-10-19T20:04:21.009Z,12.50
2018-10-19T20:06:49.420Z,12.50
2018-10-19T20:09:17.819Z,12.40
2018-10-19T20:11:46.330Z,12.40
2018-10-19T20:14:14.785Z,12.30
2018-10-19T20:16:43.684Z,12.30
2018-10-19T20:19:12.064Z,12.30
2018-10-19T20:21:40.437Z,12.30
2018-10-19T20:24:08.914Z,12.20
2018-10-19T20:26:37.261Z,12.20
2018-10-19T20:29:05.755Z,12.20
2018-10-19T20:31:34.072Z,12.10
2018-10-19T20:34:02.418Z,12.10
2018-10-19T20:36:30.794Z,12.10
2018-10-19T20:39:17.204Z,12.10
2018-10-19T20:41:45.552Z,12.00
2018-10-19T20:44:14.025Z,12.00
2018-10-19T20:46:42.335Z,12.00
2018-10-19T20:49:10.728Z,12.00
2018-10-19T20:51:39.084Z,11.90
2018-10-19T20:54:07.511Z,11.90
2018-10-19T20:56:35.920Z,11.90
2018-10-19T20:59:04.524Z,11.80
2018-10-19T21:01:32.919Z,11.80
2018-10-19T21:04:01.264Z,11.80
2018-10-19T21:06:29.646Z,11.80
2018-10-19T21:08:58.202Z,11.80
2018-10-19T21:11:26.557Z,11.70
2018-10-19T21:13:54.986Z,11.70
2018-10-19T21:16:23.328Z,11.70
2018-10-19T21:18:51.734Z,11.70
2018-10-19T21:21:20.072Z,11.60
2018-10-19T21:23:48.495Z,11.60
2018-10-19T21:26:16.851Z,11.50
2018-10-19T21:28:45.212Z,11.50
2018-10-19T21:31:13.594Z,11.40
2018-10-19T21:33:41.934Z,11.30
2018-10-19T21:36:10.407Z,11.20
2018-10-19T21:38:38.756Z,11.10
2018-10-19T21:41:07.196Z,11.10
2018-10-19T21:43:35.554Z,11.00
2018-10-19T21:46:04.974Z,10.90
2018-10-19T21:48:33.333Z,10.90
2018-10-19T21:51:02.051Z,10.80
2018-10-19T21:53:30.401Z,10.80
2018-10-19T21:55:58.787Z,10.70
2018-10-19T21:58:27.100Z,10.70
2018-10-19T22:00:55.452Z,10.70
2018-10-19T22:03:23.795Z,10.70
2018-10-19T22:05:52.167Z,10.60
2018-10-19T22:08:20.545Z,10.70
2018-10-19T22:10:48.903Z,10.70
2018-10-19T22:13:17.329Z,10.70
2018-10-19T22:15:45.726Z,10.60
2018-10-19T22:18:14.081Z,10.60
2018-10-19T22:20:42.443Z,10.50
2018-10-19T22:23:11.575Z,10.50
2018-10-19T22:25:39.803Z,10.50
2018-10-19T22:28:08.203Z,10.50
2018-10-19T22:30:36.562Z,10.50
2018-10-19T22:33:05.103Z,10.50
2018-10-19T22:35:33.443Z,10.50
2018-10-19T22:38:01.789Z,10.40
2018-10-19T22:40:30.156Z,10.40
2018-10-19T22:42:58.526Z,10.40
2018-10-19T22:45:27.281Z,10.30
2018-10-19T22:47:55.657Z,10.30
2018-10-19T22:50:24.015Z,10.20
2018-10-19T22:52:52.343Z,10.20
2018-10-19T22:55:20.677Z,10.10
2018-10-19T22:57:49.010Z,10.10
2018-10-19T23:00:17.999Z,10.00
2018-10-19T23:02:46.392Z,9.90
2018-10-19T23:05:14.825Z,9.90
2018-10-19T23:07:43.099Z,9.90
2018-10-19T23:10:11.497Z,9.80
2018-10-19T23:12:39.847Z,9.80
2018-10-19T23:15:08.334Z,9.80
2018-10-19T23:17:36.713Z,9.80
2018-10-19T23:20:05.296Z,9.80
2018-10-19T23:22:34.314Z,9.80
2018-10-19T23:25:02.684Z,9.70
2018-10-19T23:27:31.007Z,9.70
2018-10-19T23:29:59.479Z,9.70
2018-10-19T23:32:27.832Z,9.60
2018-10-19T23:34:56.267Z,9.60
2018-10-19T23:37:24.746Z,9.60
2018-10-19T23:40:00.488Z,9.60
2018-10-19T23:42:28.850Z,9.60
2018-10-19T23:44:57.200Z,9.50
2018-10-19T23:47:25.550Z,9.60
2018-10-19T23:49:54.504Z,9.60
2018-10-19T23:52:22.870Z,9.60
2018-10-19T23:54:51.226Z,9.50
2018-10-19T23:57:20.381Z,9.50
2018-10-19T23:59:48.722Z,9.50
